Time;durP1;ratioP1;P1;durP2;ratioP2;P2;SDS_P1;SDS_P2;PMS_P1;PMS_P2;Temp;Humidity;BMP_temperature;BMP_pressure;BME280_temperature;BME280_humidity;BME280_pressure;Samples;Min_cycle;Max_cycle;Signal;HPM_P1;HPM_P2
2023/10/12 00:00:47;;;;;;;18.80;10.63;;;18.50;99.90;;;;;;5052564;28;20037;-71
2023/10/12 00:03:16;;;;;;;15.40;9.70;;;18.40;99.90;;;;;;5053142;28;20017;-70
2023/10/12 00:05:45;;;;;;;15.07;9.40;;;18.40;99.90;;;;;;5053572;28;20025;-71
2023/10/12 00:08:24;;;;;;;17.27;10.75;;;18.40;99.90;;;;;;5051786;28;20021;-71
2023/10/12 00:10:54;;;;;;;17.02;10.10;;;18.30;99.90;;;;;;5053643;28;20487;-70
2023/10/12 00:13:20;;;;;;;19.67;10.10;;;18.30;99.90;;;;;;5053002;28;20276;-70
2023/10/12 00:15:47;;;;;;;15.70;9.50;;;18.30;99.90;;;;;;5053521;28;20048;-70
2023/10/12 00:18:16;;;;;;;20.10;12.13;;;18.30;99.90;;;;;;5051403;28;20078;-70
2023/10/12 00:20:44;;;;;;;16.70;12.07;;;18.20;99.90;;;;;;5052147;28;20411;-70
2023/10/12 00:23:10;;;;;;;17.40;11.35;;;18.20;99.90;;;;;;5052732;28;20064;-70
2023/10/12 00:25:46;;;;;;;16.58;11.07;;;18.20;99.90;;;;;;5053232;28;20502;-71
2023/10/12 00:28:19;;;;;;;15.15;11.45;;;18.20;99.90;;;;;;5053037;28;20021;-70
2023/10/12 00:30:47;;;;;;;18.92;11.63;;;18.20;99.90;;;;;;5053205;28;20483;-70
2023/10/12 00:33:13;;;;;;;16.35;11.45;;;18.20;99.90;;;;;;5052561;28;20021;-70
2023/10/12 00:35:39;;;;;;;17.60;11.07;;;18.20;99.90;;;;;;5053290;28;20063;-70
2023/10/12 00:38:18;;;;;;;17.13;11.63;;;18.20;99.90;;;;;;5052456;28;20054;-70
2023/10/12 00:40:57;;;;;;;23.10;11.93;;;18.10;99.90;;;;;;5051767;28;20128;-70
2023/10/12 00:43:39;;;;;;;19.33;11.63;;;18.10;99.90;;;;;;5052388;28;20029;-70
2023/10/12 00:46:20;;;;;;;23.23;13.30;;;18.00;99.90;;;;;;5052936;28;20499;-70
2023/10/12 00:49:13;;;;;;;18.58;13.02;;;18.00;99.90;;;;;;5052294;28;20108;-70
2023/10/12 00:51:35;;;;;;;19.20;12.88;;;18.00;99.90;;;;;;5052691;28;20115;-70
2023/10/12 00:54:04;;;;;;;19.77;12.43;;;18.00;99.90;;;;;;5052111;28;20506;-70
2023/10/12 00:56:30;;;;;;;20.30;13.85;;;18.00;99.90;;;;;;5052738;28;20074;-70
2023/10/12 00:58:56;;;;;;;17.90;12.13;;;18.00;99.90;;;;;;5050694;28;20021;-70
2023/10/12 01:01:23;;;;;;;20.33;13.73;;;17.90;99.90;;;;;;5052725;28;20052;-70
2023/10/12 01:03:49;;;;;;;19.75;13.50;;;17.90;99.90;;;;;;5052005;28;20048;-70
2023/10/12 01:06:28;;;;;;;22.98;14.27;;;17.90;99.90;;;;;;5052391;28;20414;-70
2023/10/12 01:08:58;;;;;;;27.13;15.35;;;17.80;99.90;;;;;;5051428;28;20075;-69
2023/10/12 01:11:26;;;;;;;25.83;15.38;;;17.80;99.90;;;;;;5052642;28;20051;-70
2023/10/12 01:19:08;;;;;;;18.75;12.57;;;17.70;99.90;;;;;;5051991;28;20043;-70
2023/10/12 01:21:37;;;;;;;25.25;16.60;;;17.60;99.90;;;;;;5052392;28;20108;-70
2023/10/12 01:24:13;;;;;;;23.83;15.27;;;17.60;99.90;;;;;;5051760;28;20071;-70
2023/10/12 01:26:49;;;;;;;24.42;15.30;;;17.60;99.90;;;;;;5052285;28;20024;-70
2023/10/12 01:29:22;;;;;;;27.60;17.20;;;17.50;99.90;;;;;;5050380;28;20039;-70
2023/10/12 01:34:36;;;;;;;25.27;15.73;;;17.50;99.90;;;;;;5051758;28;20087;-70
2023/10/12 01:37:11;;;;;;;26.13;15.95;;;17.40;99.90;;;;;;5052190;28;20028;-70
2023/10/12 01:39:41;;;;;;;29.23;16.83;;;17.40;99.90;;;;;;5051543;28;20506;-70
2023/10/12 01:42:06;;;;;;;23.38;15.57;;;17.40;99.90;;;;;;5052252;28;20029;-70
2023/10/12 01:44:33;;;;;;;31.70;18.10;;;17.40;99.90;;;;;;5051596;28;20476;-70
2023/10/12 01:46:59;;;;;;;30.10;18.27;;;17.30;99.90;;;;;;5050433;28;20571;-71
2023/10/12 01:49:25;;;;;;;26.38;17.13;;;17.30;99.90;;;;;;5049861;28;20151;-70
2023/10/12 01:51:50;;;;;;;24.98;17.20;;;17.30;99.90;;;;;;5052007;28;20021;-71
2023/10/12 01:54:22;;;;;;;25.30;17.08;;;17.30;99.90;;;;;;5051290;28;20096;-70
2023/10/12 01:56:51;;;;;;;28.77;17.25;;;17.20;99.90;;;;;;5050794;28;20036;-71
2023/10/12 01:59:19;;;;;;;27.42;17.17;;;17.20;99.90;;;;;;5051388;28;20119;-70
2023/10/12 02:01:47;;;;;;;32.22;19.38;;;17.20;99.90;;;;;;5050627;28;20067;-71
2023/10/12 02:04:13;;;;;;;28.55;17.50;;;17.20;99.90;;;;;;5049885;28;20028;-70
2023/10/12 02:06:40;;;;;;;27.13;16.25;;;17.20;99.90;;;;;;5050396;28;20377;-70
2023/10/12 02:09:08;;;;;;;23.77;15.43;;;17.10;99.90;;;;;;5051065;28;20028;-71
2023/10/12 02:11:43;;;;;;;32.85;18.30;;;17.10;99.90;;;;;;5051659;28;20031;-70
2023/10/12 02:14:11;;;;;;;23.25;15.57;;;17.10;99.90;;;;;;5051279;28;20028;-71
2023/10/12 02:16:38;;;;;;;29.48;17.60;;;17.10;99.90;;;;;;5051705;28;20422;-70
2023/10/12 02:19:04;;;;;;;29.13;17.52;;;17.10;99.90;;;;;;5050913;28;20415;-70
2023/10/12 02:21:33;;;;;;;31.48;17.02;;;17.10;99.90;;;;;;5054481;28;20021;-70
2023/10/12 02:26:39;;;;;;;26.60;17.05;;;17.20;99.90;;;;;;5055680;28;20029;-71
2023/10/12 02:31:38;;;;;;;23.88;15.45;;;17.20;99.90;;;;;;5055654;28;20025;-70
2023/10/12 02:34:17;;;;;;;24.95;14.82;;;17.30;99.90;;;;;;5053558;28;20111;-71
2023/10/12 02:39:41;;;;;;;29.13;16.33;;;17.40;99.90;;;;;;5055443;28;20031;-71
2023/10/12 02:42:17;;;;;;;24.20;13.85;;;17.40;99.90;;;;;;5055446;28;20287;-70
2023/10/12 02:47:22;;;;;;;26.40;15.05;;;17.30;99.90;;;;;;5055393;28;20431;-70
2023/10/12 02:49:51;;;;;;;27.15;14.88;;;17.30;99.90;;;;;;5054538;28;20068;-70
2023/10/12 02:52:18;;;;;;;25.92;14.95;;;17.30;99.90;;;;;;5055228;28;20017;-70
2023/10/12 02:54:51;;;;;;;26.00;15.02;;;17.30;99.90;;;;;;5054480;28;20086;-70
2023/10/12 02:57:25;;;;;;;27.45;14.48;;;17.20;99.90;;;;;;5054054;28;20431;-70
2023/10/12 03:00:15;;;;;;;28.20;14.70;;;17.20;99.90;;;;;;5054536;28;20020;-70
2023/10/12 03:02:44;;;;;;;22.63;13.27;;;17.20;99.90;;;;;;5055035;28;20028;-70
2023/10/12 03:05:13;;;;;;;24.42;13.05;;;17.20;99.90;;;;;;5052839;28;20017;-71
2023/10/12 03:07:39;;;;;;;23.33;12.85;;;17.10;99.90;;;;;;5054768;28;20025;-71
2023/10/12 03:10:07;;;;;;;17.55;11.27;;;17.10;99.90;;;;;;5054348;28;20017;-71
2023/10/12 03:12:43;;;;;;;20.67;11.27;;;17.20;99.90;;;;;;5054861;28;20021;-71
2023/10/12 03:15:14;;;;;;;19.23;10.48;;;17.10;99.90;;;;;;5054225;28;20073;-71
2023/10/12 03:17:54;;;;;;;16.48;9.85;;;17.10;99.90;;;;;;5054682;28;20021;-72
2023/10/12 03:20:22;;;;;;;24.58;10.82;;;17.10;99.90;;;;;;5054218;28;20041;-72
2023/10/12 03:22:52;;;;;;;18.08;8.48;;;17.10;99.90;;;;;;5053205;28;20028;-71
2023/10/12 03:25:19;;;;;;;17.58;9.40;;;17.00;99.90;;;;;;5052665;28;20048;-71
2023/10/12 03:27:52;;;;;;;17.80;9.93;;;17.00;99.90;;;;;;5054542;28;20032;-71
2023/10/12 03:30:18;;;;;;;22.73;9.50;;;17.00;99.90;;;;;;5053909;28;20088;-71
2023/10/12 03:32:44;;;;;;;20.42;8.80;;;17.00;99.90;;;;;;5053522;28;20463;-71
2023/10/12 03:35:15;;;;;;;16.20;8.50;;;17.00;99.90;;;;;;5054221;28;20079;-71
2023/10/12 03:37:45;;;;;;;20.90;9.32;;;17.00;99.90;;;;;;5054493;28;20373;-71
2023/10/12 03:43:27;;;;;;;20.38;9.40;;;17.10;99.90;;;;;;5063166;28;20033;-71
2023/10/12 03:46:26;;;;;;;22.15;8.98;;;17.10;99.90;;;;;;5053967;28;20027;-71
2023/10/12 03:49:06;;;;;;;17.40;8.77;;;17.10;99.90;;;;;;5053176;28;20025;-71
2023/10/12 03:51:41;;;;;;;22.73;9.55;;;17.10;99.90;;;;;;5054083;28;20029;-71
2023/10/12 03:56:53;;;;;;;20.73;8.82;;;17.10;99.90;;;;;;5053966;28;20036;-71
2023/10/12 03:59:27;;;;;;;19.00;9.27;;;17.10;99.90;;;;;;5053285;28;20032;-71
2023/10/12 04:01:54;;;;;;;22.20;9.75;;;17.10;99.90;;;;;;5052516;28;20021;-71
2023/10/12 04:04:34;;;;;;;19.92;9.82;;;17.00;99.90;;;;;;5053397;28;20033;-71
2023/10/12 04:09:42;;;;;;;19.98;9.23;;;16.90;99.90;;;;;;5053304;28;20056;-71
2023/10/12 04:14:46;;;;;;;25.58;10.52;;;16.90;99.90;;;;;;5053234;28;20036;-71
2023/10/12 04:28:08;;;;;;;17.02;9.50;;;16.90;99.90;;;;;;5051071;28;20025;-71
2023/10/12 04:33:18;;;;;;;26.80;10.52;;;16.90;99.90;;;;;;5050442;28;20118;-72
2023/10/12 04:38:46;;;;;;;27.20;10.48;;;16.90;99.90;;;;;;5050506;28;20024;-71
2023/10/12 04:44:06;;;;;;;28.08;10.90;;;16.90;99.90;;;;;;5049079;28;20021;-72
2023/10/12 04:46:46;;;;;;;20.35;10.02;;;16.90;99.90;;;;;;5050580;28;20094;-72
2023/10/12 04:49:53;;;;;;;;;;;16.90;99.90;;;;;;5050147;28;20450;-72
2023/10/12 04:57:27;;;;;;;21.50;10.02;;;16.90;99.90;;;;;;5050495;28;20029;-71
2023/10/12 05:07:57;;;;;;;24.27;11.20;;;16.90;99.90;;;;;;5052757;28;20021;-71
2023/10/12 05:13:04;;;;;;;32.17;18.88;;;17.00;99.90;;;;;;5052512;28;20029;-71
2023/10/12 05:15:41;;;;;;;30.13;19.50;;;16.90;99.90;;;;;;5051722;28;20036;-71
2023/10/12 05:18:08;;;;;;;32.50;18.77;;;16.80;99.90;;;;;;5052520;28;20044;-71
2023/10/12 05:20:34;;;;;;;25.50;18.83;;;16.80;99.90;;;;;;5051879;28;20021;-72
2023/10/12 05:23:02;;;;;;;28.35;19.60;;;16.80;99.90;;;;;;5051069;28;20116;-72
2023/10/12 05:25:47;;;;;;;36.95;22.33;;;16.80;99.90;;;;;;5051493;28;20490;-72
2023/10/12 05:28:35;;;;;;;35.03;22.48;;;16.80;99.90;;;;;;5050970;28;20017;-72
2023/10/12 05:36:10;;;;;;;37.47;24.95;;;16.60;99.90;;;;;;5051961;28;20432;-71
2023/10/12 05:38:36;;;;;;;43.05;25.77;;;16.70;99.90;;;;;;5051866;28;20029;-71
2023/10/12 05:41:04;;;;;;;34.97;24.85;;;16.70;99.90;;;;;;5052051;28;20021;-71
2023/10/12 05:43:36;;;;;;;41.95;26.65;;;16.60;99.90;;;;;;5051607;28;20029;-71
2023/10/12 05:46:15;;;;;;;40.20;27.27;;;16.60;99.90;;;;;;5050469;28;20549;-71
2023/10/12 05:48:46;;;;;;;33.50;22.98;;;16.60;99.90;;;;;;5050116;28;20524;-72
2023/10/12 05:51:21;;;;;;;35.75;23.73;;;16.50;99.90;;;;;;5051728;28;20056;-72
2023/10/12 05:54:03;;;;;;;41.13;25.70;;;16.50;99.90;;;;;;5051458;28;20568;-71
2023/10/12 05:56:34;;;;;;;40.60;25.88;;;16.50;99.90;;;;;;5051924;28;20021;-71
2023/10/12 05:59:00;;;;;;;42.42;27.92;;;16.50;99.90;;;;;;5051171;28;20511;-71
2023/10/12 06:01:36;;;;;;;39.33;25.17;;;16.50;99.90;;;;;;5052020;28;20025;-71
2023/10/12 06:04:06;;;;;;;39.42;23.55;;;16.50;99.90;;;;;;5051333;28;20027;-71
2023/10/12 06:06:41;;;;;;;44.40;25.83;;;16.40;99.90;;;;;;5051715;28;20442;-71
2023/10/12 06:09:24;;;;;;;45.40;28.40;;;16.40;99.90;;;;;;5051169;28;20025;-71
2023/10/12 06:11:51;;;;;;;41.28;25.58;;;16.40;99.90;;;;;;5050481;28;20024;-71
2023/10/12 06:14:20;;;;;;;43.83;26.45;;;16.40;99.90;;;;;;5051356;28;20041;-71
2023/10/12 06:16:46;;;;;;;51.10;28.50;;;16.40;99.90;;;;;;5050379;28;20025;-71
2023/10/12 06:19:23;;;;;;;43.95;25.75;;;16.40;99.90;;;;;;5051275;28;20380;-71
2023/10/12 06:21:52;;;;;;;45.65;26.73;;;16.40;99.90;;;;;;5051672;28;20102;-71
2023/10/12 06:24:30;;;;;;;42.03;28.42;;;16.40;99.90;;;;;;5051259;28;20036;-71
2023/10/12 06:26:56;;;;;;;42.20;25.80;;;16.40;99.90;;;;;;5051464;28;20021;-71
2023/10/12 06:29:25;;;;;;;50.78;29.90;;;16.40;99.90;;;;;;5050922;28;20459;-71
2023/10/12 06:31:53;;;;;;;48.15;28.63;;;16.40;99.90;;;;;;5051546;28;20021;-71
2023/10/12 06:34:19;;;;;;;43.63;28.10;;;16.50;99.90;;;;;;5050869;28;20100;-71
2023/10/12 06:36:45;;;;;;;45.15;27.92;;;16.50;99.90;;;;;;5051303;28;20075;-71
2023/10/12 06:46:49;;;;;;;12.18;8.52;;;16.70;99.90;;;;;;5051332;28;20075;-71
2023/10/12 06:49:29;;;;;;;8.63;4.40;;;16.70;99.90;;;;;;5050433;28;20121;-71
2023/10/12 06:52:01;;;;;;;5.33;2.40;;;16.70;99.90;;;;;;5050141;28;20029;-72
2023/10/12 06:54:39;;;;;;;6.05;1.85;;;16.70;99.90;;;;;;5050803;28;20043;-72
2023/10/12 06:57:29;;;;;;;3.38;1.48;;;16.60;99.90;;;;;;5051352;28;20060;-72
2023/10/12 07:02:24;;;;;;;4.68;1.67;;;16.40;99.90;;;;;;5051545;28;20124;-72
2023/10/12 07:04:53;;;;;;;7.43;1.85;;;16.30;99.90;;;;;;5050849;28;20045;-72
2023/10/12 07:07:36;;;;;;;6.32;2.10;;;16.20;99.90;;;;;;5052000;28;20529;-72
2023/10/12 07:12:47;;;;;;;5.93;1.88;;;16.10;99.90;;;;;;5055149;28;20029;-71
2023/10/12 07:15:22;;;;;;;6.78;2.13;;;16.00;99.90;;;;;;5054177;28;20418;-72
2023/10/12 07:17:50;;;;;;;4.68;1.98;;;15.90;99.90;;;;;;5054760;28;20483;-72
2023/10/12 07:20:40;;;;;;;6.35;2.08;;;15.90;99.90;;;;;;5053990;28;20025;-72
2023/10/12 07:23:14;;;;;;;9.93;2.67;;;15.80;99.90;;;;;;5054652;28;20536;-72
2023/10/12 07:25:45;;;;;;;5.30;2.20;;;15.80;99.90;;;;;;5054135;28;20028;-72
2023/10/12 07:33:52;;;;;;;8.75;2.00;;;15.70;99.90;;;;;;5054899;28;20048;-71
2023/10/12 07:36:18;;;;;;;7.50;2.15;;;15.60;99.90;;;;;;5052855;28;20499;-72
2023/10/12 07:38:46;;;;;;;7.47;2.13;;;15.60;99.90;;;;;;5054294;28;20032;-71
2023/10/12 07:41:12;;;;;;;5.45;1.77;;;15.60;99.90;;;;;;5053959;28;20025;-72
2023/10/12 07:43:38;;;;;;;5.88;2.00;;;15.60;99.90;;;;;;5054218;28;20094;-72
2023/10/12 07:46:13;;;;;;;6.70;1.95;;;15.50;99.90;;;;;;5053657;28;20027;-72
2023/10/12 07:48:40;;;;;;;7.78;1.88;;;15.50;99.90;;;;;;5054047;28;20506;-72
2023/10/12 07:51:19;;;;;;;5.97;1.85;;;15.50;99.90;;;;;;5053145;28;20048;-72
2023/10/12 07:53:50;;;;;;;4.82;1.77;;;15.50;99.90;;;;;;5053936;28;20547;-71
2023/10/12 07:56:16;;;;;;;7.25;1.95;;;15.50;99.90;;;;;;5052245;28;20107;-72
2023/10/12 07:58:51;;;;;;;8.35;1.92;;;15.50;99.90;;;;;;5054065;28;20036;-72
2023/10/12 08:03:52;;;;;;;6.03;1.70;;;15.40;99.90;;;;;;5053891;28;20037;-72
2023/10/12 08:06:27;;;;;;;5.80;1.80;;;15.40;99.90;;;;;;5053319;28;20391;-74
2023/10/12 08:09:02;;;;;;;10.70;2.38;;;15.50;99.90;;;;;;5053588;28;20021;-73
2023/10/12 08:11:28;;;;;;;5.53;2.03;;;15.40;99.90;;;;;;5052096;28;20017;-72
2023/10/12 08:13:55;;;;;;;4.80;1.73;;;15.40;99.90;;;;;;5053445;28;20502;-72
2023/10/12 08:16:27;;;;;;;6.15;1.90;;;15.40;99.90;;;;;;5053071;28;20021;-71
2023/10/12 08:21:31;;;;;;;5.50;1.92;;;15.40;99.90;;;;;;5053040;28;20059;-71
2023/10/12 08:39:39;;;;;;;1.98;0.85;;;15.30;99.90;;;;;;5052578;28;20037;-71
2023/10/12 08:42:29;;;;;;;7.85;2.88;;;15.30;99.90;;;;;;5052992;28;20410;-71
2023/10/12 08:44:58;;;;;;;9.85;3.10;;;15.30;99.90;;;;;;5052161;28;20028;-71
2023/10/12 08:47:43;;;;;;;7.00;3.33;;;15.30;99.90;;;;;;5051794;28;20387;-71
2023/10/12 08:52:52;;;;;;;6.55;2.90;;;15.30;99.90;;;;;;5052950;28;20029;-71
2023/10/12 08:55:25;;;;;;;23.30;3.17;;;15.30;99.90;;;;;;5050885;28;20103;-71
2023/10/12 08:58:25;;;;;;;3.90;2.15;;;15.30;99.90;;;;;;5052882;28;20108;-71
2023/10/12 09:03:29;;;;;;;6.28;2.50;;;15.30;99.90;;;;;;5052678;28;20432;-71
2023/10/12 09:05:55;;;;;;;5.30;2.40;;;15.30;99.90;;;;;;5050662;28;20048;-71
2023/10/12 09:11:03;;;;;;;4.35;1.90;;;15.20;99.90;;;;;;5052039;28;20491;-71
2023/10/12 09:13:33;;;;;;;6.93;1.88;;;15.20;99.90;;;;;;5051279;28;20021;-71
2023/10/12 09:16:09;;;;;;;3.30;1.70;;;15.20;99.90;;;;;;5051669;28;20037;-72
2023/10/12 09:18:56;;;;;;;5.15;2.00;;;15.20;99.90;;;;;;5052342;28;20086;-72
2023/10/12 09:24:05;;;;;;;5.57;1.98;;;15.10;99.90;;;;;;5052317;28;20032;-72
2023/10/12 09:26:34;;;;;;;3.40;1.50;;;15.10;99.90;;;;;;5051718;28;20017;-72
2023/10/12 09:29:12;;;;;;;3.42;1.70;;;15.10;99.90;;;;;;5052401;28;20024;-72
2023/10/12 09:36:38;;;;;;;3.38;2.03;;;15.10;99.90;;;;;;5051631;28;20539;-71
2023/10/12 09:39:14;;;;;;;3.05;1.92;;;15.00;99.90;;;;;;5050870;28;20029;-71
2023/10/12 09:41:41;;;;;;;3.70;1.85;;;15.10;99.90;;;;;;5051589;28;20025;-71
2023/10/12 09:44:11;;;;;;;3.08;1.95;;;15.10;99.90;;;;;;5050768;28;20111;-71
2023/10/12 09:46:46;;;;;;;6.70;2.43;;;15.10;99.90;;;;;;5051574;28;20498;-71
2023/10/12 09:49:22;;;;;;;2.42;1.77;;;15.00;99.90;;;;;;5051538;28;20280;-71
2023/10/12 09:51:59;;;;;;;4.90;2.58;;;15.10;99.90;;;;;;5051783;28;20028;-71
2023/10/12 09:54:45;;;;;;;4.53;2.40;;;15.10;99.90;;;;;;5050197;28;20029;-71
2023/10/12 09:57:50;;;;;;;4.68;2.35;;;15.10;99.90;;;;;;5052008;28;20444;-71
2023/10/12 10:02:55;;;;;;;5.53;2.58;;;15.00;99.90;;;;;;5060753;28;20429;-71
2023/10/12 10:05:39;;;;;;;5.55;2.95;;;15.00;99.90;;;;;;5051172;28;20021;-71
2023/10/12 10:08:06;;;;;;;5.15;2.78;;;15.10;99.90;;;;;;5052110;28;20029;-71
2023/10/12 10:10:36;;;;;;;6.25;3.17;;;15.10;99.90;;;;;;5051175;28;20025;-71
2023/10/12 10:13:10;;;;;;;6.63;2.67;;;15.10;99.90;;;;;;5051725;28;20052;-71
2023/10/12 10:15:59;;;;;;;6.30;3.13;;;15.10;99.90;;;;;;5049745;28;20036;-71
2023/10/12 10:18:28;;;;;;;7.15;2.92;;;15.20;99.90;;;;;;5051675;28;20032;-71
2023/10/12 10:21:01;;;;;;;5.80;3.05;;;15.20;99.90;;;;;;5051012;28;20025;-71
2023/10/12 10:23:35;;;;;;;4.85;2.78;;;15.20;99.90;;;;;;5051924;28;20022;-71
2023/10/12 10:26:23;;;;;;;5.78;2.92;;;15.20;99.90;;;;;;5051043;28;20028;-71
2023/10/12 10:29:04;;;;;;;7.38;3.40;;;15.20;99.90;;;;;;5051590;28;20063;-71
2023/10/12 10:31:40;;;;;;;;;;;15.30;99.90;;;;;;5051365;28;20037;-71
2023/10/12 10:34:06;;;;;;;5.55;2.78;;;15.30;99.90;;;;;;5051569;28;19905;-71
2023/10/12 10:36:34;;;;;;;4.93;2.63;;;15.40;99.90;;;;;;5051006;28;20083;-71
2023/10/12 10:44:15;;;;;;;8.48;4.63;;;15.40;99.90;;;;;;5055339;28;20029;-71
2023/10/12 10:46:45;;;;;;;11.77;4.05;;;15.50;99.90;;;;;;5054641;28;20036;-71
2023/10/12 10:49:15;;;;;;;5.32;2.90;;;15.50;99.90;;;;;;5055058;28;20491;-71
2023/10/12 10:51:47;;;;;;;0.40;0.28;;;15.50;99.90;;;;;;5054578;28;20066;-70
2023/10/12 10:54:18;;;;;;;10.30;4.82;;;15.50;99.90;;;;;;5053940;28;20103;-71
2023/10/12 10:56:47;;;;;;;14.10;6.22;;;15.50;99.90;;;;;;5053274;28;20025;-71
2023/10/12 10:59:17;;;;;;;13.10;5.40;;;15.50;99.90;;;;;;5055124;28;20099;-72
2023/10/12 11:01:48;;;;;;;15.43;7.27;;;15.60;99.90;;;;;;5054489;28;20075;-71
2023/10/12 11:05:00;;;;;;;;;;;15.60;99.90;;;;;;5055419;28;20263;-72
2023/10/12 11:07:13;;;;;;;15.50;7.22;;;15.60;99.90;;;;;;5056618;28;19917;-71
2023/10/12 11:12:20;;;;;;;14.35;7.70;;;15.70;99.90;;;;;;5054783;28;20035;-71
2023/10/12 11:17:40;;;;;;;17.25;8.45;;;15.70;99.90;;;;;;5055111;28;20094;-71
2023/10/12 11:20:43;;;;;;;29.35;9.93;;;15.70;99.90;;;;;;5053946;28;20024;-71
2023/10/12 11:23:10;;;;;;;17.33;8.68;;;15.80;99.90;;;;;;5054670;28;20104;-72
2023/10/12 11:25:42;;;;;;;14.65;7.78;;;15.80;99.90;;;;;;5054025;28;20029;-72
2023/10/12 11:28:22;;;;;;;13.77;7.75;;;15.90;99.90;;;;;;5054477;28;20491;-71
2023/10/12 11:30:51;;;;;;;17.40;8.07;;;15.90;99.90;;;;;;5053751;28;20475;-72
2023/10/12 11:33:23;;;;;;;19.60;8.88;;;15.90;99.90;;;;;;5054898;28;20376;-71
2023/10/12 11:35:49;;;;;;;16.08;8.00;;;16.00;99.90;;;;;;5052602;28;20032;-71
2023/10/12 11:38:20;;;;;;;19.33;10.07;;;16.00;99.90;;;;;;5054558;28;20449;-71
2023/10/12 11:40:53;;;;;;;15.45;8.27;;;16.00;99.90;;;;;;5053961;28;20025;-71
2023/10/12 11:43:29;;;;;;;28.50;11.75;;;16.10;99.90;;;;;;5054375;28;20035;-71
2023/10/12 11:46:01;;;;;;;18.80;9.32;;;16.10;99.90;;;;;;5053544;28;20053;-71
2023/10/12 11:48:27;;;;;;;17.27;9.70;;;16.20;99.90;;;;;;5052744;28;20067;-71
2023/10/12 11:50:55;;;;;;;22.42;9.88;;;16.20;99.90;;;;;;5053315;28;20072;-71
2023/10/12 11:53:20;;;;;;;18.55;8.55;;;16.20;99.90;;;;;;5053632;28;20017;-72
2023/10/12 11:55:50;;;;;;;30.13;12.25;;;16.30;99.90;;;;;;5053534;28;20380;-71
2023/10/12 11:58:19;;;;;;;25.92;12.10;;;16.20;99.90;;;;;;5054033;28;20090;-71
2023/10/12 12:00:50;;;;;;;21.75;10.88;;;16.30;99.90;;;;;;5053296;28;20051;-71
2023/10/12 12:03:16;;;;;;;20.52;11.43;;;16.30;99.90;;;;;;5052677;28;20035;-71
2023/10/12 12:05:43;;;;;;;21.58;11.82;;;16.30;99.90;;;;;;5053185;28;20017;-71
2023/10/12 12:08:15;;;;;;;17.38;10.95;;;16.30;99.90;;;;;;5053810;28;20028;-71
2023/10/12 12:13:20;;;;;;;20.17;11.93;;;16.30;99.90;;;;;;5053705;28;20025;-72
2023/10/12 12:15:47;;;;;;;21.95;12.82;;;16.40;99.90;;;;;;5053019;28;20483;-71
2023/10/12 12:18:20;;;;;;;30.85;13.85;;;16.30;99.90;;;;;;5053418;28;20112;-72
2023/10/12 12:20:52;;;;;;;35.47;14.85;;;16.30;99.90;;;;;;5052884;28;20454;-72
2023/10/12 12:23:19;;;;;;;25.77;13.20;;;16.40;99.90;;;;;;5053476;28;20123;-72
2023/10/12 12:25:45;;;;;;;39.75;15.13;;;16.40;99.90;;;;;;5052780;28;20099;-71
2023/10/12 12:28:21;;;;;;;25.90;13.02;;;16.40;99.90;;;;;;5052064;28;20048;-71
2023/10/12 12:30:55;;;;;;;49.38;16.48;;;16.40;99.90;;;;;;5052817;28;20074;-72
2023/10/12 12:33:22;;;;;;;49.75;17.17;;;16.50;99.90;;;;;;5052228;28;20024;-72
2023/10/12 12:35:54;;;;;;;26.05;13.60;;;16.50;99.90;;;;;;5052552;28;20057;-72
2023/10/12 12:41:12;;;;;;;81.03;19.92;;;16.50;99.90;;;;;;5052692;28;20514;-72
2023/10/12 12:43:43;;;;;;;44.55;19.95;;;16.50;99.90;;;;;;5053232;28;20082;-71
2023/10/12 12:46:10;;;;;;;45.03;19.75;;;16.50;99.90;;;;;;5052376;28;20429;-71
2023/10/12 12:48:35;;;;;;;42.60;18.02;;;16.60;99.90;;;;;;5053003;28;20078;-72
2023/10/12 12:51:01;;;;;;;43.10;20.85;;;16.60;99.90;;;;;;5052138;28;20049;-72
2023/10/12 12:53:28;;;;;;;37.97;19.98;;;16.60;99.90;;;;;;5053010;28;20332;-72
2023/10/12 12:55:56;;;;;;;31.58;17.63;;;16.70;99.90;;;;;;5052224;28;20025;-71
2023/10/12 12:58:24;;;;;;;43.55;19.27;;;16.70;99.90;;;;;;5052797;28;20017;-72
2023/10/12 13:00:52;;;;;;;47.42;23.60;;;16.70;99.90;;;;;;5050619;28;20039;-72
2023/10/12 13:03:17;;;;;;;44.58;21.38;;;16.70;99.90;;;;;;5052611;28;20024;-71
2023/10/12 13:05:43;;;;;;;45.22;21.85;;;16.70;99.90;;;;;;5051177;28;20375;-72
2023/10/12 13:08:11;;;;;;;49.17;22.75;;;16.80;99.90;;;;;;5052901;28;20530;-72
2023/10/12 13:10:39;;;;;;;50.00;22.40;;;16.80;99.90;;;;;;5052180;28;20138;-72
2023/10/12 13:13:06;;;;;;;40.00;22.52;;;16.80;99.90;;;;;;5051394;28;20025;-72
2023/10/12 13:15:32;;;;;;;50.47;23.90;;;16.80;99.90;;;;;;5051842;28;20108;-71
2023/10/12 13:18:00;;;;;;;57.05;23.40;;;16.80;99.90;;;;;;5052870;28;20107;-72
2023/10/12 13:20:29;;;;;;;45.30;20.02;;;16.80;99.90;;;;;;5051995;28;20029;-72
2023/10/12 13:22:58;;;;;;;51.03;21.45;;;16.80;99.90;;;;;;5051304;28;20553;-71
2023/10/12 13:25:26;;;;;;;56.95;24.48;;;16.90;99.90;;;;;;5051666;28;20029;-72
2023/10/12 13:27:52;;;;;;;44.28;21.35;;;16.90;99.90;;;;;;5052324;28;20067;-72
2023/10/12 13:30:18;;;;;;;71.32;26.65;;;16.90;99.90;;;;;;5051838;28;20025;-71
2023/10/12 13:32:47;;;;;;;61.17;25.75;;;16.90;99.90;;;;;;5051951;28;20383;-72
2023/10/12 13:35:31;;;;;;;67.95;26.70;;;16.90;99.90;;;;;;5051739;28;20036;-72
2023/10/12 13:38:02;;;;;;;47.78;22.95;;;16.90;99.90;;;;;;5052345;28;20025;-71
2023/10/12 13:40:29;;;;;;;54.95;24.42;;;17.00;99.90;;;;;;5051611;28;20019;-72
2023/10/12 13:43:01;;;;;;;85.82;28.77;;;17.00;99.90;;;;;;5052069;28;20017;-72
2023/10/12 13:45:28;;;;;;;58.33;24.00;;;17.00;99.90;;;;;;5051559;28;20079;-71
2023/10/12 13:47:54;;;;;;;78.50;29.25;;;17.00;99.90;;;;;;5051994;28;20018;-72
2023/10/12 13:50:20;;;;;;;79.32;27.88;;;17.00;99.90;;;;;;5051351;28;20090;-72
2023/10/12 13:52:46;;;;;;;73.80;27.80;;;17.00;99.90;;;;;;5051812;28;20016;-72
2023/10/12 13:57:02;;;;;;;56.92;23.08;;;17.00;99.90;;;;;;5025283;28;20113;-73
2023/10/12 13:59:28;;;;;;;64.93;24.98;;;17.00;99.90;;;;;;5025911;28;20097;-73
2023/10/12 14:01:54;;;;;;;89.97;25.08;;;17.00;99.90;;;;;;5025199;28;20074;-73
2023/10/12 14:04:28;;;;;;;63.85;25.25;;;17.00;99.90;;;;;;5025977;28;20079;-73
2023/10/12 14:07:01;;;;;;;52.47;21.77;;;17.00;99.90;;;;;;5025725;28;20452;-73
2023/10/12 14:09:29;;;;;;;54.45;20.70;;;17.00;99.90;;;;;;5026110;28;20030;-73
2023/10/12 14:11:56;;;;;;;60.47;23.23;;;17.00;99.90;;;;;;5025084;28;20087;-74
2023/10/12 14:14:22;;;;;;;41.63;20.05;;;17.00;99.90;;;;;;5025719;28;20049;-74
2023/10/12 14:16:48;;;;;;;34.78;18.60;;;17.00;99.90;;;;;;5025171;28;20061;-73
2023/10/12 14:19:22;;;;;;;42.08;21.42;;;17.10;99.90;;;;;;5025790;28;20014;-74
2023/10/12 14:21:52;;;;;;;50.67;24.35;;;17.00;99.90;;;;;;5007242;28;20022;-73
2023/10/12 14:24:23;;;;;;;45.20;22.45;;;17.00;99.90;;;;;;5025568;28;20029;-75
2023/10/12 14:26:49;;;;;;;;;;;17.00;99.90;;;;;;5025352;28;20026;-74
2023/10/12 14:29:18;;;;;;;48.53;20.75;;;17.00;99.90;;;;;;5025371;28;19905;-75
2023/10/12 14:31:45;;;;;;;140.63;28.63;;;16.90;99.90;;;;;;5024914;28;20018;-75
2023/10/12 14:34:13;;;;;;;77.55;26.02;;;16.90;99.90;;;;;;5025443;28;20039;-74
2023/10/12 14:36:41;;;;;;;55.25;21.48;;;16.90;99.90;;;;;;5024745;28;20042;-75
2023/10/12 14:39:13;;;;;;;50.83;20.92;;;16.90;99.90;;;;;;5025526;28;20045;-75
2023/10/12 14:41:39;;;;;;;50.45;21.30;;;16.80;99.90;;;;;;5039892;28;20074;-75
2023/10/12 14:44:05;;;;;;;50.47;21.98;;;16.80;99.90;;;;;;5007563;28;20429;-75
2023/10/12 14:46:31;;;;;;;54.97;21.88;;;16.70;99.90;;;;;;5024738;28;20056;-75
2023/10/12 14:48:58;;;;;;;69.85;23.60;;;16.70;99.90;;;;;;5025126;28;20026;-74
2023/10/12 14:51:29;;;;;;;94.10;27.33;;;16.60;99.90;;;;;;5024871;28;20033;-74
2023/10/12 14:53:56;;;;;;;40.17;18.38;;;16.70;99.90;;;;;;5025274;28;20022;-75
2023/10/12 14:56:28;;;;;;;34.45;17.02;;;16.60;99.90;;;;;;5017984;28;20129;-74
2023/10/12 14:58:55;;;;;;;44.60;18.73;;;16.70;99.90;;;;;;5023818;28;20022;-74
2023/10/12 15:01:22;;;;;;;41.05;17.73;;;16.60;99.90;;;;;;5024302;28;20022;-74
2023/10/12 15:03:47;;;;;;;44.28;16.85;;;16.60;99.90;;;;;;5024998;28;20269;-74
2023/10/12 15:06:13;;;;;;;34.35;14.38;;;16.60;99.90;;;;;;5021841;28;20231;-74
2023/10/12 15:08:40;;;;;;;23.38;11.32;;;16.60;99.90;;;;;;5011264;28;20110;-74
2023/10/12 15:11:09;;;;;;;23.25;12.10;;;16.60;99.90;;;;;;5011092;28;20029;-74
2023/10/12 15:13:37;;;;;;;23.60;12.23;;;16.60;99.90;;;;;;5011684;28;20042;-74
2023/10/12 15:16:11;;;;;;;28.17;14.10;;;16.60;99.90;;;;;;5010873;28;20067;-74
2023/10/12 15:18:39;;;;;;;22.98;11.18;;;16.60;99.90;;;;;;5011548;28;20022;-74